Time;durP1;ratioP1;P1;durP2;ratioP2;P2;SDS_P1;SDS_P2;PMS_P1;PMS_P2;Temp;Humidity;BMP_temperature;BMP_pressure;BME280_temperature;BME280_humidity;BME280_pressure;Samples;Min_cycle;Max_cycle;Signal;HPM_P1;HPM_P2
2022/04/09 00:00:16;;;;;;;3.67;1.40;;;20.00;51.70;;;;;;5012380;28;20100;-64
2022/04/09 00:02:42;;;;;;;3.55;1.17;;;20.00;51.70;;;;;;5013117;28;20046;-65
2022/04/09 00:05:09;;;;;;;3.15;1.45;;;20.00;51.60;;;;;;5016652;28;20044;-64
2022/04/09 00:07:34;;;;;;;3.88;1.10;;;20.00;51.60;;;;;;5016903;28;20132;-64
2022/04/09 00:10:00;;;;;;;3.38;1.30;;;19.90;51.50;;;;;;5015317;28;20085;-64
2022/04/09 00:12:25;;;;;;;5.18;1.60;;;20.00;51.60;;;;;;5016829;28;20050;-64
2022/04/09 00:14:51;;;;;;;4.80;1.20;;;19.90;51.50;;;;;;5016280;28;20140;-65
2022/04/09 00:17:17;;;;;;;4.80;1.40;;;19.90;51.60;;;;;;5016003;28;20511;-65
2022/04/09 00:19:43;;;;;;;2.97;1.30;;;19.90;51.50;;;;;;5016409;28;20476;-64
2022/04/09 00:22:10;;;;;;;4.60;1.20;;;19.90;51.60;;;;;;5015914;28;20103;-65
2022/04/09 00:24:36;;;;;;;2.30;1.03;;;19.90;51.50;;;;;;5016455;28;20045;-64
2022/04/09 00:27:02;;;;;;;4.00;1.10;;;19.90;51.50;;;;;;5016250;28;20777;-65
2022/04/09 00:29:27;;;;;;;3.75;1.20;;;19.90;51.50;;;;;;5015451;28;20200;-65
2022/04/09 00:31:52;;;;;;;4.82;1.65;;;19.90;51.50;;;;;;5015831;28;20050;-65
2022/04/09 00:34:18;;;;;;;4.68;1.10;;;19.90;51.50;;;;;;5016364;28;20513;-65
2022/04/09 00:36:43;;;;;;;2.88;1.20;;;19.90;51.40;;;;;;5015202;28;20050;-64
2022/04/09 00:39:09;;;;;;;3.90;1.27;;;19.80;51.40;;;;;;5015959;28;20053;-64
2022/04/09 00:41:35;;;;;;;3.05;1.23;;;19.80;51.40;;;;;;5016030;28;20508;-64
2022/04/09 00:44:00;;;;;;;3.85;1.02;;;19.80;51.40;;;;;;5015170;28;20123;-64
2022/04/09 00:46:26;;;;;;;2.90;1.05;;;19.80;51.40;;;;;;5015977;28;20058;-64
2022/04/09 00:48:51;;;;;;;2.67;1.10;;;19.80;51.40;;;;;;5015621;28;20413;-65
2022/04/09 00:51:18;;;;;;;4.13;1.27;;;19.80;51.30;;;;;;5015210;28;20056;-64
2022/04/09 00:53:43;;;;;;;2.50;0.88;;;19.80;51.30;;;;;;5016019;28;20096;-65
2022/04/09 00:56:20;;;;;;;3.72;1.13;;;19.80;51.30;;;;;;4998009;28;20042;-64
2022/04/09 00:58:54;;;;;;;2.75;1.02;;;19.80;51.30;;;;;;5013491;28;20617;-64
2022/04/09 01:01:20;;;;;;;3.83;1.02;;;19.80;51.30;;;;;;5014948;28;20070;-64
2022/04/09 01:03:45;;;;;;;3.15;1.10;;;19.70;51.30;;;;;;5014347;28;20077;-65
2022/04/09 01:06:12;;;;;;;4.45;1.23;;;19.70;51.20;;;;;;5013851;28;20053;-64
2022/04/09 01:08:37;;;;;;;4.25;0.90;;;19.70;51.30;;;;;;5015620;28;20448;-64
2022/04/09 01:11:03;;;;;;;4.13;1.20;;;19.70;51.20;;;;;;5015393;28;20046;-64
2022/04/09 01:13:29;;;;;;;2.42;0.80;;;19.70;51.20;;;;;;5014175;28;20132;-64
2022/04/09 01:15:54;;;;;;;2.60;0.80;;;19.70;51.20;;;;;;5015404;28;20088;-64
2022/04/09 01:18:20;;;;;;;3.28;0.90;;;19.70;51.20;;;;;;5014824;28;20038;-64
2022/04/09 01:20:45;;;;;;;1.88;0.75;;;19.70;51.20;;;;;;5014129;28;20089;-65
2022/04/09 01:23:11;;;;;;;3.42;0.85;;;19.70;51.20;;;;;;5015630;28;20389;-65
2022/04/09 01:25:37;;;;;;;3.35;1.02;;;19.70;51.20;;;;;;5014598;28;20046;-64
2022/04/09 01:28:03;;;;;;;2.22;0.70;;;19.70;51.20;;;;;;5013987;28;20042;-64
2022/04/09 01:30:29;;;;;;;3.60;1.10;;;19.70;51.20;;;;;;5015074;28;20058;-64
2022/04/09 01:32:54;;;;;;;3.78;1.02;;;19.70;51.20;;;;;;5014314;28;20049;-65
2022/04/09 01:35:20;;;;;;;3.05;0.90;;;19.70;51.10;;;;;;5015422;28;20042;-64
2022/04/09 01:37:46;;;;;;;2.70;0.80;;;19.70;51.20;;;;;;5014936;28;20052;-64
2022/04/09 01:40:11;;;;;;;3.38;1.02;;;19.70;51.20;;;;;;5014534;28;20041;-64
2022/04/09 01:42:37;;;;;;;4.10;0.82;;;19.70;51.10;;;;;;5014829;28;20477;-64
2022/04/09 01:45:04;;;;;;;2.45;0.80;;;19.70;51.20;;;;;;5014943;28;20045;-65
2022/04/09 01:47:30;;;;;;;4.13;1.07;;;19.70;51.20;;;;;;5014392;28;20489;-64
2022/04/09 01:49:55;;;;;;;2.72;0.90;;;19.70;51.10;;;;;;5014593;28;20057;-64
2022/04/09 01:52:21;;;;;;;2.83;0.80;;;19.80;51.20;;;;;;5014842;28;20046;-64
2022/04/09 01:54:47;;;;;;;1.95;0.95;;;19.80;51.20;;;;;;5014030;28;20076;-64
2022/04/09 01:57:13;;;;;;;2.60;0.80;;;19.70;51.10;;;;;;5014636;28;20486;-64
2022/04/09 01:59:40;;;;;;;2.35;0.60;;;19.80;51.20;;;;;;5014980;28;20042;-64
2022/04/09 02:02:05;;;;;;;2.05;0.90;;;19.70;51.10;;;;;;5012830;28;20041;-64
2022/04/09 02:04:31;;;;;;;2.45;0.70;;;19.80;51.10;;;;;;5014235;28;20046;-64
2022/04/09 02:06:56;;;;;;;2.38;1.15;;;19.80;51.10;;;;;;5014258;28;20135;-64
2022/04/09 02:09:22;;;;;;;2.58;0.70;;;19.80;51.20;;;;;;5013588;28;20107;-64
2022/04/09 02:11:47;;;;;;;2.20;0.80;;;19.80;51.10;;;;;;5014127;28;20489;-64
2022/04/09 02:14:13;;;;;;;1.60;0.68;;;19.90;51.20;;;;;;5014693;28;20042;-64
2022/04/09 02:16:39;;;;;;;1.80;0.73;;;19.80;51.10;;;;;;5013593;28;20571;-64
2022/04/09 02:19:05;;;;;;;1.60;0.50;;;19.80;51.10;;;;;;5014392;28;20038;-64
2022/04/09 02:21:30;;;;;;;2.55;0.77;;;19.80;51.10;;;;;;5014300;28;20053;-64
2022/04/09 02:23:56;;;;;;;2.00;0.60;;;19.80;51.80;;;;;;5013223;28;20077;-64
2022/04/09 02:26:22;;;;;;;2.50;0.70;;;19.80;51.70;;;;;;5013500;28;20038;-64
2022/04/09 02:28:49;;;;;;;3.25;1.02;;;19.80;51.10;;;;;;5013145;28;20065;-64
2022/04/09 02:31:17;;;;;;;1.95;0.70;;;19.90;51.10;;;;;;5014206;28;20057;-64
2022/04/09 02:33:46;;;;;;;3.63;0.80;;;19.90;51.10;;;;;;5013749;28;20049;-64
2022/04/09 02:36:13;;;;;;;1.95;0.60;;;19.90;51.10;;;;;;5013548;28;20052;-64
2022/04/09 02:38:42;;;;;;;3.03;0.70;;;19.90;51.00;;;;;;5014364;28;20050;-64
2022/04/09 02:41:10;;;;;;;1.58;0.85;;;19.90;51.00;;;;;;5014191;28;20557;-64
2022/04/09 02:43:36;;;;;;;1.50;0.68;;;19.90;51.00;;;;;;5013458;28;20164;-64
2022/04/09 02:46:02;;;;;;;3.03;0.70;;;19.90;51.00;;;;;;5013835;28;20042;-64
2022/04/09 02:48:28;;;;;;;1.80;0.60;;;19.90;51.00;;;;;;5013743;28;20100;-63
2022/04/09 02:50:54;;;;;;;1.52;0.60;;;19.90;51.00;;;;;;5012833;28;20050;-64
2022/04/09 02:53:19;;;;;;;1.73;0.60;;;19.90;51.00;;;;;;5013950;28;20054;-64
2022/04/09 02:55:45;;;;;;;2.35;0.63;;;19.90;51.00;;;;;;5013606;28;20046;-64
2022/04/09 02:58:10;;;;;;;4.70;0.70;;;20.00;51.00;;;;;;5012974;28;20069;-64
2022/04/09 03:00:36;;;;;;;2.33;0.57;;;19.90;50.90;;;;;;5013866;28;20046;-64
2022/04/09 03:03:01;;;;;;;1.92;0.77;;;20.00;51.00;;;;;;5013230;28;20097;-64
2022/04/09 03:05:27;;;;;;;1.98;0.70;;;20.00;51.00;;;;;;5012617;28;20053;-64
2022/04/09 03:07:52;;;;;;;2.75;0.57;;;20.00;51.00;;;;;;5013140;28;20048;-64
2022/04/09 03:10:18;;;;;;;2.17;0.60;;;20.00;50.90;;;;;;5013631;28;20129;-64
2022/04/09 03:12:47;;;;;;;1.55;0.68;;;20.00;50.90;;;;;;5012265;28;20046;-64
2022/04/09 03:15:13;;;;;;;1.50;0.63;;;20.00;50.90;;;;;;5013548;28;20046;-63
2022/04/09 03:17:39;;;;;;;2.58;0.60;;;20.00;50.90;;;;;;5013550;28;20054;-64
2022/04/09 03:20:06;;;;;;;1.55;0.60;;;20.00;50.90;;;;;;5012089;28;20045;-64
2022/04/09 03:22:31;;;;;;;3.63;0.60;;;20.00;50.90;;;;;;5013143;28;20041;-64
2022/04/09 03:25:00;;;;;;;1.95;0.60;;;20.00;50.90;;;;;;5012294;28;20052;-64
2022/04/09 03:27:26;;;;;;;2.40;0.60;;;20.10;50.90;;;;;;5013461;28;20046;-64
2022/04/09 03:29:52;;;;;;;1.88;0.57;;;20.00;50.90;;;;;;5012613;28;20470;-64
2022/04/09 03:32:18;;;;;;;1.17;0.50;;;20.00;50.90;;;;;;5012516;28;20042;-64
2022/04/09 03:34:43;;;;;;;2.63;0.60;;;20.10;50.90;;;;;;5012487;28;20108;-64
2022/04/09 03:37:09;;;;;;;1.15;0.40;;;20.10;51.00;;;;;;5012585;28;20394;-64
2022/04/09 03:39:35;;;;;;;1.98;0.50;;;20.10;50.90;;;;;;5012473;28;20060;-64
2022/04/09 03:42:01;;;;;;;1.10;0.40;;;20.10;50.90;;;;;;5012945;28;20041;-64
2022/04/09 03:44:26;;;;;;;1.52;0.55;;;20.10;51.00;;;;;;5013155;28;20045;-64
2022/04/09 03:46:59;;;;;;;1.65;0.70;;;20.10;51.00;;;;;;5012124;28;20038;-64
2022/04/09 03:49:24;;;;;;;2.72;0.55;;;20.10;50.90;;;;;;5013132;28;20104;-64
2022/04/09 03:51:50;;;;;;;1.23;0.40;;;20.10;50.90;;;;;;5012405;28;20050;-64
2022/04/09 03:54:15;;;;;;;1.38;0.50;;;20.10;50.90;;;;;;5012107;28;20052;-64
2022/04/09 03:56:43;;;;;;;0.75;0.40;;;20.10;50.90;;;;;;5012881;28;20049;-64
2022/04/09 03:59:09;;;;;;;1.63;0.43;;;20.10;50.90;;;;;;5013075;28;20053;-64
2022/04/09 04:01:34;;;;;;;1.67;0.52;;;20.10;50.90;;;;;;5012113;28;20393;-64
2022/04/09 04:04:00;;;;;;;2.88;1.00;;;20.10;50.90;;;;;;5012157;28;20045;-64
2022/04/09 04:06:25;;;;;;;0.95;0.50;;;20.10;50.90;;;;;;5012020;28;20054;-64
2022/04/09 04:08:51;;;;;;;2.83;0.68;;;20.10;50.80;;;;;;5011772;28;20508;-64
2022/04/09 04:11:17;;;;;;;1.90;0.60;;;20.20;50.90;;;;;;5012928;28;20047;-64
2022/04/09 04:13:43;;;;;;;2.20;0.73;;;20.10;50.80;;;;;;5012592;28;20049;-64
2022/04/09 04:16:09;;;;;;;2.72;0.50;;;20.20;50.80;;;;;;5010869;28;20097;-64
2022/04/09 04:18:35;;;;;;;1.40;0.38;;;20.10;50.70;;;;;;5012679;28;20053;-64
2022/04/09 04:21:01;;;;;;;2.08;0.60;;;20.20;50.80;;;;;;5012122;28;20053;-64
2022/04/09 04:23:27;;;;;;;2.40;0.50;;;20.20;50.80;;;;;;5012024;28;20038;-64
2022/04/09 04:25:52;;;;;;;2.17;0.50;;;20.20;50.80;;;;;;5012461;28;20393;-64
2022/04/09 04:28:18;;;;;;;1.88;0.50;;;20.20;50.80;;;;;;5011786;28;20053;-64
2022/04/09 04:30:43;;;;;;;1.25;0.40;;;20.20;50.70;;;;;;5011955;28;20139;-64
2022/04/09 04:33:09;;;;;;;1.50;0.50;;;20.20;50.70;;;;;;5012512;28;20100;-64
2022/04/09 04:35:34;;;;;;;1.48;0.40;;;20.20;50.70;;;;;;5011657;28;20485;-64
2022/04/09 04:38:00;;;;;;;0.85;0.30;;;20.20;50.70;;;;;;5012419;28;20046;-64
2022/04/09 04:40:25;;;;;;;1.63;0.40;;;20.20;50.70;;;;;;5012433;28;20046;-64
2022/04/09 04:42:51;;;;;;;1.95;0.60;;;20.20;50.60;;;;;;5011501;28;20048;-64
2022/04/09 04:45:16;;;;;;;0.98;0.40;;;20.20;50.60;;;;;;5012300;28;20046;-64
2022/04/09 04:47:43;;;;;;;1.55;0.40;;;20.20;50.60;;;;;;5012644;28;20088;-64
2022/04/09 04:50:09;;;;;;;1.77;0.40;;;20.20;50.60;;;;;;5015062;28;20049;-64
2022/04/09 04:52:34;;;;;;;1.70;0.32;;;20.20;50.60;;;;;;5020854;28;20038;-64
2022/04/09 04:55:00;;;;;;;1.42;0.40;;;20.20;50.50;;;;;;5035450;28;20095;-64
2022/04/09 04:57:25;;;;;;;1.70;0.60;;;20.20;50.50;;;;;;5035286;28;20166;-64
2022/04/09 04:59:51;;;;;;;1.60;0.40;;;20.20;50.60;;;;;;5035551;28;20042;-64
2022/04/09 05:02:16;;;;;;;1.48;0.43;;;20.20;50.50;;;;;;5035437;28;20046;-64
2022/04/09 05:04:42;;;;;;;1.60;0.40;;;20.20;50.50;;;;;;5034578;28;20116;-64
2022/04/09 05:07:08;;;;;;;1.80;0.40;;;20.20;50.50;;;;;;5035465;28;20045;-64
2022/04/09 05:09:35;;;;;;;2.00;0.40;;;20.30;50.60;;;;;;5035783;28;20038;-64
2022/04/09 05:12:00;;;;;;;1.50;0.40;;;20.30;50.50;;;;;;5034577;28;20045;-64
2022/04/09 05:14:26;;;;;;;2.13;0.40;;;20.20;50.50;;;;;;5035434;28;20103;-64
2022/04/09 05:16:52;;;;;;;1.08;0.40;;;20.30;50.50;;;;;;5035249;28;20465;-64
2022/04/09 05:19:17;;;;;;;1.75;0.45;;;20.30;50.50;;;;;;5034519;28;20500;-64
2022/04/09 05:21:45;;;;;;;1.85;0.55;;;20.30;50.50;;;;;;5034939;28;20045;-64
2022/04/09 05:24:10;;;;;;;3.30;0.50;;;20.30;50.50;;;;;;5035510;28;20048;-64
2022/04/09 05:26:36;;;;;;;1.73;0.40;;;20.30;50.50;;;;;;5034366;28;20053;-64
2022/04/09 05:29:02;;;;;;;0.38;0.30;;;20.30;50.40;;;;;;5034830;28;20108;-64
2022/04/09 05:31:27;;;;;;;1.40;0.40;;;20.30;50.50;;;;;;5035200;28;20049;-64
2022/04/09 05:33:56;;;;;;;1.70;0.40;;;20.30;50.50;;;;;;5034135;28;20045;-64
2022/04/09 05:36:22;;;;;;;1.40;0.40;;;20.30;50.50;;;;;;5035102;28;20047;-64
2022/04/09 05:38:48;;;;;;;1.17;0.47;;;20.30;50.40;;;;;;5033931;28;20038;-64
2022/04/09 05:41:13;;;;;;;1.20;0.40;;;20.30;50.40;;;;;;5035022;28;20041;-64
2022/04/09 05:43:39;;;;;;;2.28;0.52;;;20.30;50.40;;;;;;5035026;28;20495;-64
2022/04/09 05:46:05;;;;;;;1.67;0.50;;;20.30;50.40;;;;;;5033990;28;20135;-64
2022/04/09 05:48:31;;;;;;;1.23;0.40;;;20.30;50.40;;;;;;5034878;28;20038;-64
2022/04/09 05:50:56;;;;;;;1.02;0.40;;;20.30;50.40;;;;;;5034393;28;20043;-64
2022/04/09 05:53:22;;;;;;;2.22;0.45;;;20.30;50.40;;;;;;5033909;28;20452;-64
2022/04/09 05:55:47;;;;;;;1.83;0.40;;;20.40;50.40;;;;;;5034311;28;20048;-64
2022/04/09 05:58:13;;;;;;;1.67;0.40;;;20.40;50.40;;;;;;5034725;28;20562;-64
2022/04/09 06:00:38;;;;;;;1.85;0.40;;;20.40;50.40;;;;;;5032810;28;20052;-64
2022/04/09 06:03:04;;;;;;;1.35;0.35;;;20.40;50.40;;;;;;5033911;28;20068;-64
2022/04/09 06:05:30;;;;;;;1.35;0.40;;;20.40;50.40;;;;;;5034452;28;20049;-64
2022/04/09 06:07:55;;;;;;;1.98;0.40;;;20.40;50.40;;;;;;5033217;28;20073;-64
2022/04/09 06:10:21;;;;;;;1.83;0.43;;;20.40;50.40;;;;;;5034429;28;20042;-64
2022/04/09 06:12:46;;;;;;;2.35;0.75;;;20.40;50.40;;;;;;5033695;28;20085;-64
2022/04/09 06:15:12;;;;;;;1.30;0.50;;;20.40;50.40;;;;;;5033458;28;20064;-64
2022/04/09 06:17:39;;;;;;;2.63;0.50;;;20.40;50.40;;;;;;5033725;28;20048;-64
2022/04/09 06:20:06;;;;;;;1.70;0.47;;;20.40;50.40;;;;;;5034080;28;20125;-64
2022/04/09 06:22:32;;;;;;;1.17;0.40;;;20.40;50.40;;;;;;5033545;28;20073;-64
2022/04/09 06:24:58;;;;;;;2.45;0.45;;;20.40;50.40;;;;;;5033715;28;20046;-64
2022/04/09 06:27:23;;;;;;;3.10;0.60;;;20.40;50.40;;;;;;5034300;28;20050;-64
2022/04/09 06:29:49;;;;;;;3.70;0.50;;;20.40;50.40;;;;;;5032706;28;20053;-64
2022/04/09 06:32:14;;;;;;;3.47;0.73;;;20.50;50.40;;;;;;5033737;28;20539;-64
2022/04/09 06:34:40;;;;;;;2.25;0.43;;;20.50;50.40;;;;;;5034085;28;20080;-64
2022/04/09 06:37:05;;;;;;;1.60;0.40;;;20.50;50.40;;;;;;5032751;28;20046;-64
2022/04/09 06:39:31;;;;;;;1.45;0.38;;;20.50;50.30;;;;;;5033884;28;20470;-64
2022/04/09 06:41:56;;;;;;;4.25;0.60;;;20.50;50.30;;;;;;5032843;28;20088;-64
2022/04/09 06:44:24;;;;;;;0.82;0.40;;;20.50;50.30;;;;;;5033654;28;20508;-64
2022/04/09 06:46:49;;;;;;;1.70;0.55;;;20.50;50.30;;;;;;5033501;28;20131;-64
2022/04/09 06:49:15;;;;;;;1.90;0.40;;;20.50;50.30;;;;;;5032884;28;20092;-64
2022/04/09 06:51:40;;;;;;;1.48;0.60;;;20.50;50.30;;;;;;5033729;28;20091;-64
2022/04/09 06:54:06;;;;;;;3.05;0.50;;;20.50;50.30;;;;;;5033473;28;20409;-62
2022/04/09 06:56:32;;;;;;;6.45;0.60;;;20.50;50.30;;;;;;5034175;28;20496;-64
2022/04/09 06:58:57;;;;;;;5.03;0.55;;;20.60;50.40;;;;;;5032409;28;21086;-65
2022/04/09 07:01:23;;;;;;;4.43;0.70;;;20.50;50.20;;;;;;5033284;28;20132;-67
2022/04/09 07:03:48;;;;;;;3.92;0.77;;;20.60;50.30;;;;;;5032035;28;20196;-67
2022/04/09 07:06:16;;;;;;;3.15;0.60;;;20.60;50.30;;;;;;5033240;28;20037;-64
2022/04/09 07:08:42;;;;;;;2.65;0.50;;;20.60;50.30;;;;;;5033256;28;20481;-64
2022/04/09 07:11:07;;;;;;;3.58;0.82;;;20.70;50.40;;;;;;5031951;28;20099;-64
2022/04/09 07:13:33;;;;;;;3.78;0.77;;;20.70;50.40;;;;;;5033366;28;20041;-64
2022/04/09 07:15:58;;;;;;;2.17;0.55;;;20.70;50.40;;;;;;5032771;28;20087;-64
2022/04/09 07:18:24;;;;;;;3.00;0.68;;;20.70;50.50;;;;;;5032242;28;20056;-65
2022/04/09 07:20:49;;;;;;;1.67;0.70;;;20.70;50.50;;;;;;5032377;28;20041;-65
2022/04/09 07:23:15;;;;;;;3.67;0.85;;;20.70;50.50;;;;;;5033130;28;20081;-64
2022/04/09 07:25:42;;;;;;;2.40;0.60;;;20.80;50.60;;;;;;5031110;28;20048;-64
2022/04/09 07:28:08;;;;;;;2.97;0.83;;;20.80;50.60;;;;;;5022449;28;20092;-65
2022/04/09 07:30:33;;;;;;;2.92;0.70;;;20.80;50.70;;;;;;5021517;28;20049;-66
2022/04/09 07:32:59;;;;;;;3.78;0.73;;;20.80;50.80;;;;;;5022501;28;20064;-64
2022/04/09 07:35:25;;;;;;;3.67;0.70;;;20.80;50.90;;;;;;5022734;28;20501;-63
2022/04/09 07:37:55;;;;;;;5.35;0.70;;;20.80;51.00;;;;;;5027069;28;20037;-65
2022/04/09 07:40:24;;;;;;;4.07;0.63;;;20.90;51.20;;;;;;5017418;28;20161;-65
2022/04/09 07:42:50;;;;;;;4.50;0.60;;;20.80;51.20;;;;;;5012822;28;20103;-64
2022/04/09 07:45:15;;;;;;;3.72;0.60;;;20.80;51.20;;;;;;5012039;28;20120;-65
2022/04/09 07:47:41;;;;;;;3.95;1.17;;;20.90;51.30;;;;;;5012815;28;20042;-66
2022/04/09 07:50:10;;;;;;;3.15;0.68;;;20.90;51.40;;;;;;5012468;28;20069;-65
2022/04/09 07:52:39;;;;;;;4.97;0.85;;;20.90;51.40;;;;;;5025761;28;20106;-63
2022/04/09 07:55:08;;;;;;;5.63;0.90;;;20.90;51.50;;;;;;5030368;28;20046;-66
2022/04/09 07:57:34;;;;;;;2.38;0.70;;;20.90;51.50;;;;;;5018397;28;20098;-63
2022/04/09 08:00:00;;;;;;;1.58;0.60;;;20.90;51.40;;;;;;5031402;28;20041;-64
2022/04/09 08:02:25;;;;;;;2.30;0.57;;;21.00;51.50;;;;;;5032881;28;20392;-63
2022/04/09 08:04:51;;;;;;;3.42;0.50;;;21.00;52.20;;;;;;5032089;28;20132;-65
2022/04/09 08:07:16;;;;;;;3.78;0.68;;;21.00;51.50;;;;;;5031803;28;20056;-64
2022/04/09 08:09:45;;;;;;;2.80;0.60;;;21.00;51.40;;;;;;5032567;28;20087;-62
2022/04/09 08:12:12;;;;;;;3.80;0.77;;;21.00;51.50;;;;;;5032339;28;20133;-65
2022/04/09 08:14:41;;;;;;;2.72;0.73;;;21.10;51.50;;;;;;5028686;28;20046;-66
2022/04/09 08:17:06;;;;;;;2.72;0.70;;;21.10;51.40;;;;;;5021987;28;20191;-64
2022/04/09 08:19:34;;;;;;;2.53;0.70;;;21.10;51.30;;;;;;5030605;28;20529;-63
2022/04/09 08:22:00;;;;;;;3.55;0.50;;;21.10;51.20;;;;;;5030838;28;20484;-66
2022/04/09 08:24:26;;;;;;;2.75;0.70;;;21.20;51.30;;;;;;5034050;28;20038;-67
2022/04/09 08:26:51;;;;;;;4.65;0.60;;;21.20;51.30;;;;;;5035926;28;20052;-65
2022/04/09 08:29:19;;;;;;;2.95;0.52;;;21.20;51.40;;;;;;5034343;28;20477;-65
2022/04/09 08:31:47;;;;;;;6.45;0.63;;;21.20;51.40;;;;;;5034967;28;20053;-64
2022/04/09 08:34:13;;;;;;;5.97;0.90;;;21.20;51.50;;;;;;5036232;28;20049;-65
2022/04/09 08:36:39;;;;;;;2.60;0.75;;;21.20;51.50;;;;;;5035237;28;20055;-64
2022/04/09 08:39:04;;;;;;;3.55;0.80;;;21.30;51.60;;;;;;5035433;28;20041;-66
2022/04/09 08:41:30;;;;;;;1.73;0.57;;;21.30;51.60;;;;;;5034685;28;20053;-64
2022/04/09 08:43:56;;;;;;;3.28;0.60;;;21.30;51.60;;;;;;5035739;28;20041;-64
2022/04/09 08:46:22;;;;;;;3.28;0.60;;;21.30;51.60;;;;;;5035746;28;20037;-65
2022/04/09 08:48:49;;;;;;;4.07;0.60;;;21.30;51.60;;;;;;5033704;28;20056;-65
2022/04/09 08:51:14;;;;;;;3.38;0.43;;;21.30;51.70;;;;;;5033939;28;20057;-63
2022/04/09 08:53:40;;;;;;;3.75;0.57;;;21.30;51.60;;;;;;5034413;28;20053;-63
2022/04/09 08:56:06;;;;;;;7.05;0.85;;;21.30;51.60;;;;;;5034318;28;20045;-64
2022/04/09 08:58:31;;;;;;;2.63;0.50;;;21.30;52.30;;;;;;5034913;28;20522;-63
2022/04/09 09:00:57;;;;;;;4.32;0.63;;;21.30;51.60;;;;;;5035402;28;20081;-63
2022/04/09 09:03:23;;;;;;;2.00;0.80;;;21.30;51.60;;;;;;5034962;28;20038;-64
2022/04/09 09:05:52;;;;;;;2.58;0.60;;;21.30;51.70;;;;;;5033457;28;20049;-64
2022/04/09 09:08:38;;;;;;;3.35;0.65;;;21.30;51.60;;;;;;5035680;28;20073;-64
2022/04/09 09:11:03;;;;;;;3.45;0.50;;;21.30;51.50;;;;;;5034076;28;20551;-64
2022/04/09 09:13:29;;;;;;;2.72;0.40;;;21.30;51.50;;;;;;5035343;28;20041;-63
2022/04/09 09:15:55;;;;;;;3.28;0.80;;;21.20;51.50;;;;;;5035318;28;20042;-63
2022/04/09 09:18:26;;;;;;;3.92;0.80;;;21.20;51.60;;;;;;5034474;28;20046;-65
2022/04/09 09:20:52;;;;;;;2.72;0.60;;;21.20;51.60;;;;;;5034950;28;20046;-65
2022/04/09 09:23:27;;;;;;;1.58;0.50;;;21.20;51.60;;;;;;5035292;28;20053;-65
2022/04/09 09:25:56;;;;;;;3.20;0.60;;;21.20;51.50;;;;;;5034146;28;20041;-64
2022/04/09 09:28:27;;;;;;;1.83;0.45;;;21.20;51.60;;;;;;5035253;28;20060;-65
2022/04/09 09:30:53;;;;;;;1.95;0.45;;;21.20;51.50;;;;;;5034176;28;20103;-65
2022/04/09 09:33:18;;;;;;;2.05;0.60;;;21.20;51.50;;;;;;5035013;28;20045;-64
2022/04/09 09:35:51;;;;;;;1.80;0.40;;;21.20;51.60;;;;;;5034482;28;20033;-66
2022/04/09 09:38:40;;;;;;;2.90;0.90;;;21.20;51.60;;;;;;5034033;28;20404;-65
2022/04/09 09:41:05;;;;;;;4.13;0.50;;;21.20;51.60;;;;;;5034419;28;20042;-65
2022/04/09 09:43:31;;;;;;;3.15;0.50;;;21.20;51.60;;;;;;5023498;28;20516;-65
2022/04/09 09:45:57;;;;;;;3.67;0.80;;;21.30;51.70;;;;;;5013985;28;20030;-65
2022/04/09 09:48:27;;;;;;;3.03;0.70;;;21.30;51.60;;;;;;5032159;28;20455;-64
2022/04/09 09:50:56;;;;;;;2.65;0.60;;;21.30;51.60;;;;;;5034327;28;20559;-65
2022/04/09 09:53:32;;;;;;;2.88;0.57;;;21.30;51.50;;;;;;5034105;28;20481;-66
2022/04/09 09:55:59;;;;;;;2.40;0.60;;;21.20;51.30;;;;;;5034402;28;20045;-64
2022/04/09 09:58:28;;;;;;;3.38;0.70;;;21.20;51.40;;;;;;5034690;28;20125;-65
2022/04/09 10:00:58;;;;;;;2.30;0.50;;;21.20;51.40;;;;;;5032868;28;20482;-68
2022/04/09 10:03:24;;;;;;;3.13;0.73;;;21.20;51.30;;;;;;5035782;28;20046;-68
2022/04/09 10:05:50;;;;;;;1.88;0.55;;;21.30;51.30;;;;;;5033199;28;20052;-67
2022/04/09 10:08:16;;;;;;;2.47;0.60;;;21.30;51.20;;;;;;5034487;28;20428;-67
2022/04/09 10:10:46;;;;;;;2.53;0.45;;;21.30;51.80;;;;;;5036332;28;20097;-62
2022/04/09 10:13:11;;;;;;;1.70;0.60;;;21.20;51.00;;;;;;5031558;28;20053;-64
2022/04/09 10:15:39;;;;;;;2.33;0.50;;;21.30;51.10;;;;;;5032789;28;20045;-67
2022/04/09 10:18:04;;;;;;;4.32;0.77;;;21.30;51.30;;;;;;5033934;28;20124;-65
2022/04/09 10:20:30;;;;;;;5.55;0.65;;;21.30;51.40;;;;;;5033243;28;20116;-64
2022/04/09 10:22:58;;;;;;;2.85;0.57;;;21.30;51.30;;;;;;5033866;28;20535;-65
2022/04/09 10:25:28;;;;;;;4.38;0.50;;;21.30;51.10;;;;;;5032719;28;20069;-65
2022/04/09 10:27:59;;;;;;;3.13;0.60;;;21.30;51.00;;;;;;5033146;28;20116;-64
2022/04/09 10:30:25;;;;;;;3.25;1.00;;;21.30;51.00;;;;;;5033921;28;20119;-65
2022/04/09 10:32:55;;;;;;;3.88;0.40;;;21.20;50.90;;;;;;5033372;28;20145;-65
2022/04/09 10:35:28;;;;;;;3.13;0.63;;;21.20;50.90;;;;;;5033073;28;20163;-65
2022/04/09 10:38:15;;;;;;;3.33;0.50;;;21.20;50.90;;;;;;5033618;28;20045;-65
2022/04/09 10:40:43;;;;;;;4.25;0.50;;;21.20;51.00;;;;;;5033983;28;20041;-65
2022/04/09 10:43:39;;;;;;;;;;;21.20;51.10;;;;;;5033610;28;20110;-65
2022/04/09 10:46:05;;;;;;;1.50;0.60;;;21.10;51.10;;;;;;5032733;28;19921;-68
2022/04/09 10:48:35;;;;;;;4.28;0.68;;;21.10;51.20;;;;;;5022566;28;20056;-64
2022/04/09 10:51:04;;;;;;;5.63;0.57;;;21.10;51.20;;;;;;5023481;28;20034;-68
2022/04/09 10:53:31;;;;;;;2.40;0.50;;;21.10;51.20;;;;;;5032166;28;20037;-64
2022/04/09 10:56:21;;;;;;;3.25;0.60;;;21.10;51.20;;;;;;5032094;28;20037;-64
2022/04/09 10:59:16;;;;;;;5.75;1.48;;;21.00;51.20;;;;;;5033090;28;20092;-64
2022/04/09 11:01:46;;;;;;;4.35;1.50;;;21.00;51.30;;;;;;5033653;28;20120;-64
2022/04/09 11:07:07;;;;;;;6.13;2.08;;;21.10;51.40;;;;;;5032964;28;20053;-65
2022/04/09 11:09:56;;;;;;;7.50;2.08;;;21.10;51.40;;;;;;5031817;28;20046;-65
2022/04/09 11:12:24;;;;;;;6.53;1.88;;;21.00;51.40;;;;;;5032884;28;20056;-64
2022/04/09 11:15:00;;;;;;;5.63;1.83;;;21.00;51.30;;;;;;5032984;28;20052;-64
2022/04/09 11:17:30;;;;;;;6.55;1.95;;;21.00;51.30;;;;;;5031938;28;20490;-64
2022/04/09 11:19:56;;;;;;;9.35;2.10;;;21.00;51.30;;;;;;5032620;28;20439;-65
2022/04/09 11:22:30;;;;;;;8.45;2.05;;;21.00;51.40;;;;;;5031104;28;20180;-64
2022/04/09 11:24:56;;;;;;;6.72;1.95;;;21.00;51.40;;;;;;5031955;28;20049;-65
2022/04/09 11:27:21;;;;;;;5.75;1.83;;;20.90;51.40;;;;;;5033076;28;20045;-65
2022/04/09 11:29:47;;;;;;;6.60;1.90;;;20.90;51.30;;;;;;5032366;28;20057;-65
2022/04/09 11:32:19;;;;;;;5.70;1.80;;;20.90;51.20;;;;;;5031120;28;20049;-63
2022/04/09 11:34:51;;;;;;;6.70;1.80;;;20.90;51.10;;;;;;5032500;28;20042;-64
2022/04/09 11:37:16;;;;;;;3.78;1.35;;;20.80;51.10;;;;;;5025193;28;20042;-64
2022/04/09 11:39:43;;;;;;;8.45;1.90;;;20.80;51.20;;;;;;5012795;28;20053;-64
2022/04/09 11:42:09;;;;;;;6.25;1.67;;;20.80;51.20;;;;;;5024553;28;20117;-66
2022/04/09 11:44:35;;;;;;;5.60;1.60;;;20.80;51.10;;;;;;5029834;28;20156;-64
2022/04/09 11:47:23;;;;;;;6.55;1.88;;;20.80;51.00;;;;;;5029487;28;20048;-63
2022/04/09 11:49:48;;;;;;;5.90;1.65;;;20.80;50.90;;;;;;5032252;28;20058;-63
2022/04/09 11:52:25;;;;;;;6.57;1.45;;;20.80;50.90;;;;;;5031592;28;20053;-63
2022/04/09 11:54:51;;;;;;;6.22;1.40;;;20.80;50.70;;;;;;5032428;28;20041;-63
2022/04/09 11:57:16;;;;;;;7.40;1.92;;;20.70;50.60;;;;;;5032557;28;20045;-63
2022/04/09 11:59:42;;;;;;;5.35;1.50;;;20.80;50.60;;;;;;5031890;28;20103;-63
2022/04/09 12:02:22;;;;;;;4.05;1.30;;;20.80;50.50;;;;;;5032610;28;20087;-63
2022/04/09 12:04:48;;;;;;;5.38;1.90;;;20.80;50.30;;;;;;5032271;28;20049;-63
2022/04/09 12:07:13;;;;;;;5.30;1.73;;;20.80;50.30;;;;;;5047291;28;20045;-63
2022/04/09 12:09:39;;;;;;;6.97;1.73;;;20.80;50.20;;;;;;5047657;28;20132;-63
2022/04/09 12:12:05;;;;;;;4.57;1.55;;;20.80;50.00;;;;;;5047608;28;20405;-63
2022/04/09 12:14:30;;;;;;;6.57;1.65;;;20.80;50.00;;;;;;5031582;28;20096;-63
2022/04/09 12:16:56;;;;;;;5.28;1.60;;;20.80;50.00;;;;;;5047590;28;20041;-63
2022/04/09 12:19:29;;;;;;;4.45;1.60;;;20.80;49.90;;;;;;5032537;28;20516;-63
2022/04/09 12:21:54;;;;;;;4.43;1.52;;;20.80;49.80;;;;;;5032083;28;20052;-63
2022/04/09 12:24:20;;;;;;;5.80;1.80;;;20.80;49.80;;;;;;5031866;28;20456;-63
2022/04/09 12:26:45;;;;;;;4.38;1.45;;;20.80;49.80;;;;;;5031182;28;20054;-63
2022/04/09 12:29:19;;;;;;;5.78;1.77;;;20.70;49.60;;;;;;5047276;28;20129;-63
2022/04/09 12:31:48;;;;;;;5.57;1.88;;;20.70;49.70;;;;;;5031989;28;20045;-63
2022/04/09 12:34:14;;;;;;;5.65;1.85;;;20.70;49.60;;;;;;5030565;28;21231;-63
2022/04/09 12:37:00;;;;;;;5.55;1.98;;;20.70;49.60;;;;;;5030835;28;20045;-63
2022/04/09 12:39:26;;;;;;;4.97;1.55;;;20.70;49.30;;;;;;5025660;28;20048;-63
2022/04/09 12:41:55;;;;;;;3.80;1.58;;;20.70;49.50;;;;;;5028895;28;20060;-63
2022/04/09 12:44:27;;;;;;;5.20;1.58;;;20.80;49.50;;;;;;5031989;28;20045;-63
2022/04/09 12:46:53;;;;;;;7.78;1.70;;;20.80;49.50;;;;;;5031812;28;20125;-63
2022/04/09 12:49:29;;;;;;;4.10;1.45;;;20.80;49.50;;;;;;5031355;28;20050;-63